sensor_id;sensor_type;location;lat;lon;timestamp;pressure;altitude;pressure_sealevel;temperature;humidity
58739;BME280;44512;53.046;18.604;2022-08-03T00:07:27;101892.32;;;21.79;44.16
58739;BME280;44512;53.046;18.604;2022-08-03T00:17:56;101896.55;;;21.70;44.47
58739;BME280;44512;53.046;18.604;2022-08-03T00:28:24;101891.92;;;21.59;44.86
58739;BME280;44512;53.046;18.604;2022-08-03T00:38:53;101889.08;;;21.54;45.50
58739;BME280;44512;53.046;18.604;2022-08-03T00:49:21;101881.70;;;21.43;45.81
58739;BME280;44512;53.046;18.604;2022-08-03T00:59:49;101881.59;;;21.38;46.36
58739;BME280;44512;53.046;18.604;2022-08-03T01:10:36;101872.50;;;21.37;46.75
58739;BME280;44512;53.046;18.604;2022-08-03T01:20:48;101863.88;;;21.33;47.14
58739;BME280;44512;53.046;18.604;2022-08-03T01:31:19;101881.94;;;21.29;47.64
58739;BME280;44512;53.046;18.604;2022-08-03T01:41:50;101872.16;;;21.22;48.10
58739;BME280;44512;53.046;18.604;2022-08-03T01:52:13;101878.13;;;21.19;48.66
58739;BME280;44512;53.046;18.604;2022-08-03T02:02:41;101878.38;;;21.17;48.85
58739;BME280;44512;53.046;18.604;2022-08-03T02:13:08;101872.30;;;21.15;49.19
58739;BME280;44512;53.046;18.604;2022-08-03T02:23:37;101869.77;;;21.14;49.55
58739;BME280;44512;53.046;18.604;2022-08-03T02:34:10;101862.48;;;21.07;49.95
58739;BME280;44512;53.046;18.604;2022-08-03T02:44:34;101857.13;;;21.01;50.47
58739;BME280;44512;53.046;18.604;2022-08-03T02:55:03;101863.60;;;20.95;51.02
58739;BME280;44512;53.046;18.604;2022-08-03T03:05:32;101860.74;;;20.90;51.53
58739;BME280;44512;53.046;18.604;2022-08-03T03:16:03;101857.88;;;20.85;51.87
58739;BME280;44512;53.046;18.604;2022-08-03T03:26:27;101851.17;;;20.80;52.01
58739;BME280;44512;53.046;18.604;2022-08-03T03:36:55;101856.67;;;20.80;52.14
58739;BME280;44512;53.046;18.604;2022-08-03T03:47:23;101865.40;;;20.77;52.27
58739;BME280;44512;53.046;18.604;2022-08-03T03:57:51;101876.41;;;20.77;52.34
58739;BME280;44512;53.046;18.604;2022-08-03T04:08:20;101887.20;;;20.79;52.62
58739;BME280;44512;53.046;18.604;2022-08-03T04:18:54;101891.36;;;20.81;52.94
58739;BME280;44512;53.046;18.604;2022-08-03T04:29:17;101912.91;;;20.85;53.14
58739;BME280;44512;53.046;18.604;2022-08-03T04:39:48;101913.27;;;20.88;53.40
58739;BME280;44512;53.046;18.604;2022-08-03T04:50:14;101924.63;;;20.92;53.31
58739;BME280;44512;53.046;18.604;2022-08-03T05:00:41;101937.91;;;20.95;53.29
58739;BME280;44512;53.046;18.604;2022-08-03T05:11:09;101937.20;;;20.99;53.16
58739;BME280;44512;53.046;18.604;2022-08-03T05:21:38;101940.06;;;21.04;53.26
58739;BME280;44512;53.046;18.604;2022-08-03T05:32:06;101934.67;;;21.10;53.40
58739;BME280;44512;53.046;18.604;2022-08-03T05:42:36;101937.29;;;21.16;53.64
58739;BME280;44512;53.046;18.604;2022-08-03T05:53:03;101939.58;;;21.19;53.57
58739;BME280;44512;53.046;18.604;2022-08-03T06:03:31;101945.19;;;21.24;53.68
58739;BME280;44512;53.046;18.604;2022-08-03T06:14:00;101955.59;;;21.34;53.79
58739;BME280;44512;53.046;18.604;2022-08-03T06:24:28;101955.81;;;21.44;53.76
58739;BME280;44512;53.046;18.604;2022-08-03T06:34:56;101954.61;;;21.52;53.77
58739;BME280;44512;53.046;18.604;2022-08-03T06:45:25;101957.58;;;21.62;53.80
58739;BME280;44512;53.046;18.604;2022-08-03T06:55:53;101954.19;;;21.72;53.79
58739;BME280;44512;53.046;18.604;2022-08-03T07:06:21;101959.65;;;21.83;53.72
58739;BME280;44512;53.046;18.604;2022-08-03T07:16:50;101963.19;;;21.96;53.89
58739;BME280;44512;53.046;18.604;2022-08-03T07:27:18;101960.75;;;22.11;54.04
58739;BME280;44512;53.046;18.604;2022-08-03T07:37:46;101962.95;;;22.26;53.88
58739;BME280;44512;53.046;18.604;2022-08-03T07:48:15;101964.88;;;22.42;53.93
58739;BME280;44512;53.046;18.604;2022-08-03T07:58:43;101961.55;;;22.57;53.84
58739;BME280;44512;53.046;18.604;2022-08-03T08:09:11;101958.55;;;22.75;54.01
58739;BME280;44512;53.046;18.604;2022-08-03T08:19:40;101970.43;;;22.93;53.44
58739;BME280;44512;53.046;18.604;2022-08-03T08:30:09;101964.64;;;23.11;52.21
58739;BME280;44512;53.046;18.604;2022-08-03T08:40:39;101959.91;;;23.28;50.89
58739;BME280;44512;53.046;18.604;2022-08-03T08:51:05;101957.34;;;23.44;48.90
58739;BME280;44512;53.046;18.604;2022-08-03T09:01:33;101966.48;;;23.66;46.53
58739;BME280;44512;53.046;18.604;2022-08-03T09:12:02;101967.26;;;23.83;45.18
58739;BME280;44512;53.046;18.604;2022-08-03T09:22:30;101954.45;;;23.99;43.99
58739;BME280;44512;53.046;18.604;2022-08-03T09:33:03;101947.12;;;24.15;43.73
58739;BME280;44512;53.046;18.604;2022-08-03T09:43:27;101948.62;;;24.28;43.48
58739;BME280;44512;53.046;18.604;2022-08-03T09:53:55;101945.78;;;24.50;42.79
58739;BME280;44512;53.046;18.604;2022-08-03T10:04:23;101941.20;;;24.65;42.50
58739;BME280;44512;53.046;18.604;2022-08-03T10:14:52;101928.05;;;24.83;41.89
58739;BME280;44512;53.046;18.604;2022-08-03T10:25:20;101926.25;;;25.04;40.72
58739;BME280;44512;53.046;18.604;2022-08-03T10:35:53;101931.56;;;25.10;40.52
58739;BME280;44512;53.046;18.604;2022-08-03T10:51:35;101918.63;;;25.26;40.27
58739;BME280;44512;53.046;18.604;2022-08-03T11:02:03;101919.80;;;25.40;39.71
58739;BME280;44512;53.046;18.604;2022-08-03T11:12:32;101912.08;;;25.53;39.21
58739;BME280;44512;53.046;18.604;2022-08-03T11:23:00;101912.70;;;25.70;38.40
58739;BME280;44512;53.046;18.604;2022-08-03T11:33:28;101917.20;;;25.86;38.23
58739;BME280;44512;53.046;18.604;2022-08-03T11:43:56;101908.91;;;26.02;37.26
58739;BME280;44512;53.046;18.604;2022-08-03T11:54:25;101894.48;;;26.25;37.41
58739;BME280;44512;53.046;18.604;2022-08-03T12:04:58;101891.19;;;26.43;36.86
58739;BME280;44512;53.046;18.604;2022-08-03T12:15:29;101884.50;;;26.60;36.70
58739;BME280;44512;53.046;18.604;2022-08-03T12:25:50;101883.35;;;26.76;36.13
58739;BME280;44512;53.046;18.604;2022-08-03T12:36:18;101876.07;;;27.00;35.57
58739;BME280;44512;53.046;18.604;2022-08-03T12:46:56;101856.03;;;27.19;35.37
58739;BME280;44512;53.046;18.604;2022-08-03T12:57:15;101862.09;;;27.26;35.30
58739;BME280;44512;53.046;18.604;2022-08-03T13:07:44;101862.88;;;27.37;34.41
58739;BME280;44512;53.046;18.604;2022-08-03T13:18:11;101863.38;;;27.44;33.93
58739;BME280;44512;53.046;18.604;2022-08-03T13:28:40;101852.47;;;27.58;34.04
58739;BME280;44512;53.046;18.604;2022-08-03T13:39:08;101844.55;;;27.80;33.03
58739;BME280;44512;53.046;18.604;2022-08-03T13:49:36;101841.65;;;27.95;33.44
58739;BME280;44512;53.046;18.604;2022-08-03T14:00:05;101816.47;;;28.11;33.51
58739;BME280;44512;53.046;18.604;2022-08-03T14:10:35;101832.52;;;28.24;32.57
58739;BME280;44512;53.046;18.604;2022-08-03T14:21:03;101823.38;;;28.47;30.84
58739;BME280;44512;53.046;18.604;2022-08-03T14:31:30;101831.59;;;28.87;29.92
58739;BME280;44512;53.046;18.604;2022-08-03T14:41:58;101816.09;;;29.23;29.11
58739;BME280;44512;53.046;18.604;2022-08-03T14:52:26;101810.34;;;29.57;29.26
58739;BME280;44512;53.046;18.604;2022-08-03T15:02:55;101804.87;;;29.85;28.67
58739;BME280;44512;53.046;18.604;2022-08-03T15:13:23;101805.42;;;30.20;28.67
58739;BME280;44512;53.046;18.604;2022-08-03T15:23:51;101781.45;;;30.46;28.73
58739;BME280;44512;53.046;18.604;2022-08-03T15:34:20;101784.98;;;30.66;28.80
58739;BME280;44512;53.046;18.604;2022-08-03T15:44:48;101781.63;;;31.19;27.48
58739;BME280;44512;53.046;18.604;2022-08-03T15:55:21;101780.05;;;32.07;26.60
58739;BME280;44512;53.046;18.604;2022-08-03T16:05:56;101775.92;;;32.76;26.00
58739;BME280;44512;53.046;18.604;2022-08-03T16:16:18;101773.52;;;32.91;25.76
58739;BME280;44512;53.046;18.604;2022-08-03T16:26:47;101767.88;;;32.83;25.24
58739;BME280;44512;53.046;18.604;2022-08-03T16:37:20;101761.27;;;32.79;25.57
58739;BME280;44512;53.046;18.604;2022-08-03T16:47:53;101762.63;;;32.90;25.07
58739;BME280;44512;53.046;18.604;2022-08-03T16:58:21;101768.04;;;32.86;25.18
58739;BME280;44512;53.046;18.604;2022-08-03T17:08:49;101772.41;;;32.61;25.64
58739;BME280;44512;53.046;18.604;2022-08-03T17:19:20;101768.63;;;32.26;26.17
58739;BME280;44512;53.046;18.604;2022-08-03T17:29:48;101764.41;;;31.84;26.75
58739;BME280;44512;53.046;18.604;2022-08-03T17:40:14;101771.77;;;31.57;27.31
58739;BME280;44512;53.046;18.604;2022-08-03T17:50:49;101783.90;;;31.30;27.70
58739;BME280;44512;53.046;18.604;2022-08-03T18:01:13;101786.41;;;31.04;28.08
58739;BME280;44512;53.046;18.604;2022-08-03T18:11:44;101792.05;;;30.77;29.88
58739;BME280;44512;53.046;18.604;2022-08-03T18:22:07;101788.08;;;30.50;29.19
58739;BME280;44512;53.046;18.604;2022-08-03T18:32:36;101793.43;;;30.33;29.11
58739;BME280;44512;53.046;18.604;2022-08-03T18:43:05;101801.57;;;30.16;29.30
58739;BME280;44512;53.046;18.604;2022-08-03T18:53:41;101805.75;;;29.99;29.52
58739;BME280;44512;53.046;18.604;2022-08-03T19:04:12;101811.05;;;29.82;29.83
58739;BME280;44512;53.046;18.604;2022-08-03T19:14:37;101812.42;;;29.66;30.53
58739;BME280;44512;53.046;18.604;2022-08-03T19:24:59;101816.03;;;29.47;31.14
58739;BME280;44512;53.046;18.604;2022-08-03T19:35:27;101818.57;;;29.25;31.53
58739;BME280;44512;53.046;18.604;2022-08-03T19:45:54;101818.84;;;29.04;31.66
58739;BME280;44512;53.046;18.604;2022-08-03T19:56:25;101829.63;;;28.87;31.82
58739;BME280;44512;53.046;18.604;2022-08-03T20:06:51;101823.16;;;28.68;32.11
58739;BME280;44512;53.046;18.604;2022-08-03T20:17:19;101821.16;;;28.49;32.33
58739;BME280;44512;53.046;18.604;2022-08-03T20:27:50;101819.89;;;28.32;32.46
58739;BME280;44512;53.046;18.604;2022-08-03T20:38:17;101811.74;;;28.11;32.58
58739;BME280;44512;53.046;18.604;2022-08-03T20:48:44;101824.34;;;28.03;32.79
58739;BME280;44512;53.046;18.604;2022-08-03T20:59:12;101833.95;;;27.87;33.13
58739;BME280;44512;53.046;18.604;2022-08-03T21:20:10;101822.97;;;27.62;33.18
58739;BME280;44512;53.046;18.604;2022-08-03T21:30:37;101827.47;;;27.52;33.17
58739;BME280;44512;53.046;18.604;2022-08-03T21:41:06;101840.30;;;27.43;33.27
58739;BME280;44512;53.046;18.604;2022-08-03T21:51:36;101840.95;;;27.30;33.76
58739;BME280;44512;53.046;18.604;2022-08-03T22:02:03;101839.38;;;27.14;34.06
58739;BME280;44512;53.046;18.604;2022-08-03T22:12:31;101846.35;;;26.96;34.68
58739;BME280;44512;53.046;18.604;2022-08-03T22:23:02;101850.59;;;26.78;34.93
58739;BME280;44512;53.046;18.604;2022-08-03T22:33:28;101851.17;;;26.60;35.36
58739;BME280;44512;53.046;18.604;2022-08-03T22:43:57;101856.75;;;26.44;35.92
58739;BME280;44512;53.046;18.604;2022-08-03T22:54:24;101864.77;;;26.36;36.81
58739;BME280;44512;53.046;18.604;2022-08-03T23:04:55;101852.84;;;26.25;37.65
58739;BME280;44512;53.046;18.604;2022-08-03T23:15:23;101853.42;;;26.22;38.54
58739;BME280;44512;53.046;18.604;2022-08-03T23:25:50;101860.09;;;26.16;39.26
58739;BME280;44512;53.046;18.604;2022-08-03T23:36:18;101859.51;;;26.09;39.96
58739;BME280;44512;53.046;18.604;2022-08-03T23:46:46;101850.07;;;26.00;40.46
